createdAt,value
2022-12-18T00:01:21.807Z,48.39
2022-12-18T00:03:48.756Z,48.85
2022-12-18T00:06:16.237Z,48.40
2022-12-18T00:08:43.888Z,48.43
2022-12-18T00:11:17.140Z,47.70
2022-12-18T00:13:43.734Z,48.23
2022-12-18T00:16:13.724Z,47.92
2022-12-18T00:18:41.158Z,47.82
2022-12-18T00:21:11.139Z,48.08
2022-12-18T00:23:38.451Z,47.46
2022-12-18T00:26:08.755Z,47.68
2022-12-18T00:28:35.228Z,48.18
2022-12-18T00:31:07.912Z,48.27
2022-12-18T00:33:35.269Z,47.73
2022-12-18T00:36:07.347Z,47.87
2022-12-18T00:38:34.627Z,47.72
2022-12-18T00:41:01.222Z,48.45
2022-12-18T00:43:27.997Z,48.63
2022-12-18T00:45:54.913Z,48.16
2022-12-18T00:48:21.906Z,48.05
2022-12-18T00:50:49.496Z,48.42
2022-12-18T00:53:16.254Z,48.93
2022-12-18T00:55:43.680Z,48.87
2022-12-18T00:58:11.849Z,48.94
2022-12-18T01:00:39.065Z,50.08
2022-12-18T01:03:06.769Z,49.65
2022-12-18T01:05:33.819Z,48.46
2022-12-18T01:08:00.451Z,48.41
2022-12-18T01:10:27.061Z,48.12
2022-12-18T01:12:53.510Z,48.07
2022-12-18T01:15:21.448Z,47.99
2022-12-18T01:17:47.943Z,47.87
2022-12-18T01:20:14.612Z,48.12
2022-12-18T01:22:41.093Z,47.58
2022-12-18T01:25:08.753Z,47.64
2022-12-18T01:27:35.449Z,47.37
2022-12-18T01:30:02.075Z,47.23
2022-12-18T01:32:31.652Z,46.97
2022-12-18T01:34:58.233Z,47.01
2022-12-18T01:37:24.713Z,47.08
2022-12-18T01:39:53.284Z,47.75
2022-12-18T01:42:19.805Z,47.35
2022-12-18T01:44:58.410Z,47.44
2022-12-18T01:47:27.112Z,47.62
2022-12-18T01:49:54.298Z,47.91
2022-12-18T01:52:21.277Z,47.43
2022-12-18T01:54:48.906Z,47.82
2022-12-18T01:57:16.045Z,47.32
2022-12-18T01:59:44.277Z,47.24
2022-12-18T02:02:11.268Z,46.96
2022-12-18T02:04:37.882Z,46.70
2022-12-18T02:07:12.169Z,46.31
2022-12-18T02:09:49.776Z,46.16
2022-12-18T02:12:21.342Z,46.40
2022-12-18T02:14:59.652Z,46.25
2022-12-18T02:17:40.373Z,46.09
2022-12-18T02:20:31.403Z,46.49
2022-12-18T02:23:33.465Z,46.61
2022-12-18T02:26:09.103Z,46.94
2022-12-18T02:28:49.797Z,46.62
2022-12-18T02:31:20.810Z,47.14
2022-12-18T02:33:48.235Z,46.88
2022-12-18T02:36:16.667Z,47.21
2022-12-18T02:38:44.393Z,46.51
2022-12-18T02:41:11.420Z,46.97
2022-12-18T02:43:38.388Z,47.16
2022-12-18T02:46:30.255Z,46.99
2022-12-18T02:49:05.155Z,46.41
2022-12-18T02:51:59.154Z,46.70
2022-12-18T02:54:32.019Z,47.28
2022-12-18T02:57:02.283Z,47.68
2022-12-18T02:59:46.499Z,47.42
2022-12-18T03:02:21.756Z,47.59
2022-12-18T03:05:31.695Z,48.01
2022-12-18T03:08:02.505Z,47.82
2022-12-18T03:10:31.182Z,47.78
2022-12-18T03:13:04.870Z,48.23
2022-12-18T03:15:47.265Z,48.15
2022-12-18T03:18:23.757Z,47.60
2022-12-18T03:21:31.029Z,46.93
2022-12-18T03:23:57.910Z,46.49
2022-12-18T03:26:26.360Z,46.84
2022-12-18T03:28:59.557Z,46.60
2022-12-18T03:31:27.336Z,46.71
2022-12-18T03:33:56.222Z,46.17
2022-12-18T03:36:23.511Z,46.16
2022-12-18T03:38:50.768Z,47.24
2022-12-18T03:41:27.630Z,48.05
2022-12-18T03:44:05.485Z,48.55
2022-12-18T03:47:36.190Z,48.83
2022-12-18T03:50:12.675Z,48.71
2022-12-18T03:52:47.559Z,48.31
2022-12-18T03:55:14.122Z,48.18
2022-12-18T03:57:42.393Z,47.81
2022-12-18T04:00:14.197Z,48.15
2022-12-18T04:02:46.181Z,47.84
2022-12-18T04:05:13.442Z,47.49
2022-12-18T04:07:40.937Z,47.96
2022-12-18T04:10:08.803Z,48.33
2022-12-18T04:12:35.293Z,48.39
2022-12-18T04:15:01.873Z,48.66
2022-12-18T04:17:28.464Z,48.06
2022-12-18T04:19:54.934Z,47.91
2022-12-18T04:22:21.854Z,48.24
2022-12-18T04:24:48.313Z,47.68
2022-12-18T04:27:15.027Z,47.86
2022-12-18T04:29:41.859Z,47.67
2022-12-18T04:32:08.909Z,47.45
2022-12-18T04:34:35.669Z,47.08
2022-12-18T04:37:02.163Z,47.41
2022-12-18T04:39:28.821Z,48.16
2022-12-18T04:41:55.579Z,47.80
2022-12-18T04:44:22.533Z,47.63
2022-12-18T04:46:49.111Z,47.48
2022-12-18T04:49:15.600Z,47.25
2022-12-18T04:51:42.154Z,47.56
2022-12-18T04:54:08.824Z,47.43
2022-12-18T04:56:35.277Z,47.78
2022-12-18T04:59:01.755Z,47.53
2022-12-18T05:01:34.258Z,48.89
2022-12-18T05:04:01.947Z,49.02
2022-12-18T05:06:28.864Z,49.30
2022-12-18T05:08:55.322Z,49.42
2022-12-18T05:11:22.014Z,48.74
2022-12-18T05:13:48.660Z,48.47
2022-12-18T05:16:15.801Z,47.76
2022-12-18T05:18:42.620Z,47.83
2022-12-18T05:21:09.507Z,47.22
2022-12-18T05:23:36.192Z,47.29
2022-12-18T05:26:04.726Z,47.89
2022-12-18T05:28:33.322Z,47.55
2022-12-18T05:31:01.711Z,47.27
2022-12-18T05:33:31.826Z,46.95
2022-12-18T05:36:00.826Z,47.13
2022-12-18T05:38:28.609Z,47.07
2022-12-18T05:40:55.287Z,46.88
2022-12-18T05:43:23.265Z,46.72
2022-12-18T05:45:50.523Z,47.21
2022-12-18T05:48:17.550Z,47.21
2022-12-18T05:50:46.499Z,47.01
2022-12-18T05:53:14.362Z,47.28
2022-12-18T05:55:41.822Z,47.17
2022-12-18T05:58:09.808Z,48.10
2022-12-18T06:00:41.983Z,47.71
2022-12-18T06:03:09.889Z,48.28
2022-12-18T06:05:38.395Z,48.25
2022-12-18T06:08:05.378Z,47.65
2022-12-18T06:10:32.320Z,47.57
2022-12-18T06:12:58.909Z,47.72
2022-12-18T06:15:25.497Z,47.76
2022-12-18T06:17:52.097Z,47.59
2022-12-18T06:20:18.696Z,48.25
2022-12-18T06:22:45.633Z,48.25
2022-12-18T06:25:12.191Z,49.26
2022-12-18T06:27:38.939Z,50.62
2022-12-18T06:30:06.032Z,49.94
2022-12-18T06:32:32.551Z,49.10
2022-12-18T06:34:59.057Z,48.97
2022-12-18T06:37:27.034Z,49.01
2022-12-18T06:40:30.718Z,48.98
2022-12-18T06:42:57.261Z,49.29
2022-12-18T06:45:23.845Z,48.88
2022-12-18T06:47:50.572Z,49.34
2022-12-18T06:50:17.764Z,48.91
2022-12-18T06:52:44.940Z,49.66
2022-12-18T06:55:12.182Z,49.09
2022-12-18T06:57:38.978Z,49.51
2022-12-18T07:00:07.300Z,49.26
2022-12-18T07:02:34.223Z,48.82
2022-12-18T07:05:04.770Z,48.89
2022-12-18T07:07:35.500Z,48.76
2022-12-18T07:10:02.059Z,49.27
2022-12-18T07:12:28.927Z,49.08
2022-12-18T07:14:55.429Z,49.75
2022-12-18T07:17:22.259Z,49.67
2022-12-18T07:19:48.778Z,48.85
2022-12-18T07:22:15.272Z,49.15
2022-12-18T07:24:41.894Z,49.58
2022-12-18T07:27:08.483Z,49.27
2022-12-18T07:29:35.932Z,48.98
2022-12-18T07:32:02.590Z,49.13
2022-12-18T07:34:29.148Z,49.15
2022-12-18T07:37:33.322Z,50.18
2022-12-18T07:39:59.849Z,49.58
2022-12-18T07:42:32.449Z,49.81
2022-12-18T07:44:59.988Z,49.22
2022-12-18T07:47:26.816Z,49.76
2022-12-18T07:49:53.884Z,49.18
2022-12-18T07:52:25.726Z,49.03
2022-12-18T07:54:52.546Z,49.37
2022-12-18T07:57:41.688Z,48.89
2022-12-18T08:00:06.271Z,49.26
2022-12-18T08:02:32.983Z,49.18
2022-12-18T08:04:59.722Z,48.81
2022-12-18T08:07:26.295Z,49.47
2022-12-18T08:09:52.880Z,48.82
2022-12-18T08:12:19.662Z,49.10
2022-12-18T08:14:46.150Z,48.49
2022-12-18T08:17:12.719Z,48.28
2022-12-18T08:19:39.261Z,48.78
2022-12-18T08:22:43.428Z,48.17
2022-12-18T08:25:10.128Z,48.53
2022-12-18T08:27:37.034Z,48.69
2022-12-18T08:30:04.988Z,48.55
2022-12-18T08:32:34.125Z,50.29
2022-12-18T08:35:00.961Z,48.93
2022-12-18T08:37:27.506Z,49.31
2022-12-18T08:39:54.020Z,49.30
2022-12-18T08:43:30.373Z,49.14
2022-12-18T08:45:57.796Z,49.84
2022-12-18T08:48:24.362Z,50.52
2022-12-18T08:51:00.813Z,49.76
2022-12-18T08:53:32.702Z,50.59
2022-12-18T08:56:02.312Z,49.42
2022-12-18T08:58:28.822Z,49.22
2022-12-18T09:00:55.362Z,48.64
2022-12-18T09:03:23.473Z,48.96
2022-12-18T09:05:50.150Z,48.51
2022-12-18T09:08:16.713Z,48.50
2022-12-18T09:10:47.635Z,48.21
2022-12-18T09:13:16.285Z,47.73
2022-12-18T09:15:49.288Z,47.49
2022-12-18T09:18:17.673Z,46.59
2022-12-18T09:21:22.106Z,41.61
2022-12-18T09:23:52.659Z,38.23
2022-12-18T09:26:19.374Z,33.72
2022-12-18T09:28:45.914Z,29.97
2022-12-18T09:31:15.477Z,28.28
2022-12-18T09:33:42.550Z,25.48
2022-12-18T09:36:11.032Z,26.09
2022-12-18T09:38:37.951Z,25.51
2022-12-18T09:41:27.097Z,25.53
2022-12-18T09:44:00.183Z,25.95
2022-12-18T09:46:32.075Z,26.18
2022-12-18T09:49:40.628Z,26.14
2022-12-18T09:52:22.298Z,25.56
2022-12-18T09:55:04.216Z,23.46
2022-12-18T09:58:37.317Z,21.96
2022-12-18T10:01:12.043Z,21.08
2022-12-18T10:03:38.743Z,20.83
2022-12-18T10:06:25.160Z,20.91
2022-12-18T10:09:37.958Z,21.07
2022-12-18T10:12:17.903Z,21.43
2022-12-18T10:15:00.548Z,21.50
2022-12-18T10:17:57.424Z,20.93
2022-12-18T10:20:39.131Z,20.49
2022-12-18T10:23:24.361Z,20.43
2022-12-18T10:26:01.988Z,21.70
2022-12-18T10:28:30.969Z,21.25
2022-12-18T10:30:57.716Z,21.44
2022-12-18T10:33:25.992Z,22.06
2022-12-18T10:35:52.828Z,22.09
2022-12-18T10:38:20.104Z,22.16
2022-12-18T10:40:51.896Z,22.60
2022-12-18T10:43:27.894Z,23.42
2022-12-18T10:46:01.306Z,24.65
2022-12-18T10:48:28.486Z,25.83
2022-12-18T10:51:12.965Z,26.64
2022-12-18T10:53:41.540Z,27.79
2022-12-18T10:56:08.020Z,29.02
2022-12-18T10:58:39.455Z,29.40
2022-12-18T11:01:14.937Z,30.90
2022-12-18T11:04:02.401Z,31.20
2022-12-18T11:06:30.384Z,31.65
2022-12-18T11:09:23.233Z,32.61
2022-12-18T11:11:53.249Z,31.86
2022-12-18T11:14:25.364Z,32.07
2022-12-18T11:19:40.757Z,31.88
2022-12-18T11:22:29.643Z,31.68
2022-12-18T11:25:32.138Z,30.45
2022-12-18T11:28:03.675Z,29.66
2022-12-18T11:30:39.165Z,28.92
2022-12-18T11:33:22.828Z,29.63
2022-12-18T11:36:04.563Z,30.45
2022-12-18T11:38:34.969Z,31.36
2022-12-18T11:41:05.321Z,32.33
2022-12-18T11:43:39.939Z,34.21
2022-12-18T11:46:20.410Z,34.54
2022-12-18T11:49:08.926Z,35.71
2022-12-18T11:51:54.634Z,35.64
2022-12-18T11:54:21.151Z,35.94
2022-12-18T11:57:09.719Z,36.40
2022-12-18T11:59:54.447Z,36.74
2022-12-18T12:02:42.151Z,37.37
2022-12-18T12:05:23.774Z,38.32
2022-12-18T12:07:56.322Z,40.03
2022-12-18T12:10:41.601Z,39.96
2022-12-18T12:13:50.198Z,40.84
2022-12-18T12:16:18.910Z,41.58
2022-12-18T12:18:57.524Z,42.15
2022-12-18T12:21:45.129Z,42.14
2022-12-18T12:24:35.534Z,42.12
2022-12-18T12:27:57.446Z,42.35
2022-12-18T12:30:31.951Z,41.97
2022-12-18T12:33:07.996Z,42.22
2022-12-18T12:35:47.780Z,42.76
2022-12-18T12:38:22.821Z,43.11
2022-12-18T12:41:00.566Z,42.50
2022-12-18T12:43:49.393Z,42.92
2022-12-18T12:46:19.080Z,44.05
2022-12-18T12:48:51.451Z,46.70
2022-12-18T12:51:35.449Z,46.30
2022-12-18T12:54:04.695Z,45.88
2022-12-18T12:56:43.517Z,45.80
2022-12-18T12:59:36.378Z,45.58
2022-12-18T13:02:18.940Z,45.75
2022-12-18T13:04:53.988Z,45.58
2022-12-18T13:07:24.163Z,47.16
2022-12-18T13:10:23.773Z,47.92
2022-12-18T13:13:50.210Z,48.00
2022-12-18T13:16:20.737Z,47.90
2022-12-18T13:18:52.615Z,48.29
2022-12-18T13:21:57.483Z,47.45
2022-12-18T13:24:30.603Z,47.49
2022-12-18T13:26:57.203Z,48.43
2022-12-18T13:29:45.181Z,48.32
2022-12-18T13:32:26.210Z,48.69
2022-12-18T13:35:23.060Z,49.87
2022-12-18T13:37:55.272Z,49.10
2022-12-18T13:40:40.215Z,49.08
2022-12-18T13:43:39.454Z,48.89
2022-12-18T13:46:19.137Z,48.65
2022-12-18T13:48:55.419Z,49.19
2022-12-18T13:51:23.279Z,49.65
2022-12-18T13:54:01.407Z,50.85
2022-12-18T13:56:31.914Z,51.39
2022-12-18T13:59:09.780Z,52.05
2022-12-18T14:01:36.594Z,51.05
2022-12-18T14:04:25.224Z,50.62
2022-12-18T14:07:10.929Z,50.64
2022-12-18T14:12:57.346Z,50.66
2022-12-18T14:15:30.190Z,51.21
2022-12-18T14:18:10.730Z,52.76
2022-12-18T14:20:40.852Z,52.84
2022-12-18T14:23:32.472Z,53.11
2022-12-18T14:26:05.343Z,53.67
2022-12-18T14:28:32.794Z,54.74
2022-12-18T14:30:59.480Z,54.05
2022-12-18T14:33:29.013Z,54.62
2022-12-18T14:36:01.703Z,55.90
2022-12-18T14:38:35.236Z,55.81
2022-12-18T14:41:07.528Z,56.39
2022-12-18T14:43:36.062Z,54.54
2022-12-18T14:46:04.386Z,54.72
2022-12-18T14:48:43.555Z,54.33
2022-12-18T14:51:20.075Z,53.93
2022-12-18T14:53:57.388Z,54.93
2022-12-18T14:56:32.134Z,53.39
2022-12-18T14:58:59.637Z,53.52
2022-12-18T15:01:48.121Z,53.55
2022-12-18T15:04:37.389Z,53.09
2022-12-18T15:07:12.894Z,54.36
2022-12-18T15:09:41.048Z,54.42
2022-12-18T15:12:23.841Z,53.72
2022-12-18T15:14:50.344Z,53.28
2022-12-18T15:17:23.279Z,52.99
2022-12-18T15:19:53.576Z,52.28
2022-12-18T15:22:32.221Z,52.06
2022-12-18T15:24:59.471Z,52.47
2022-12-18T15:28:04.423Z,52.17
2022-12-18T15:30:32.407Z,52.24
2022-12-18T15:33:25.714Z,51.47
2022-12-18T15:36:04.261Z,51.24
2022-12-18T15:38:32.016Z,52.13
2022-12-18T15:40:58.725Z,50.19
2022-12-18T15:43:34.913Z,51.42
2022-12-18T15:46:02.945Z,49.87
2022-12-18T15:48:29.704Z,48.48
2022-12-18T15:50:58.229Z,49.80
2022-12-18T15:53:26.671Z,48.57
2022-12-18T15:56:11.672Z,48.42
2022-12-18T15:58:38.908Z,50.24
2022-12-18T16:01:05.669Z,49.95
2022-12-18T16:03:32.476Z,50.71
2022-12-18T16:06:01.244Z,49.53
2022-12-18T16:08:31.702Z,48.76
2022-12-18T16:10:59.061Z,48.87
2022-12-18T16:13:25.575Z,50.66
2022-12-18T16:15:52.197Z,49.45
2022-12-18T16:18:18.753Z,49.35
2022-12-18T16:20:45.356Z,48.67
2022-12-18T16:23:11.905Z,49.54
2022-12-18T16:25:38.384Z,49.18
2022-12-18T16:28:05.425Z,51.20
2022-12-18T16:30:35.756Z,50.60
2022-12-18T16:33:05.668Z,50.68
2022-12-18T16:35:34.388Z,49.90
2022-12-18T16:38:00.877Z,50.50
2022-12-18T16:40:27.568Z,50.54
2022-12-18T16:42:54.095Z,46.28
2022-12-18T16:45:20.979Z,46.65
2022-12-18T16:47:47.554Z,45.84
2022-12-18T16:50:14.851Z,43.74
2022-12-18T16:52:41.730Z,43.45
2022-12-18T16:55:08.909Z,43.61
2022-12-18T16:57:35.556Z,42.27
2022-12-18T17:00:05.438Z,41.43
2022-12-18T17:02:32.944Z,42.41
2022-12-18T17:05:37.687Z,42.55
2022-12-18T17:08:04.470Z,45.46
2022-12-18T17:10:31.245Z,43.42
2022-12-18T17:12:57.866Z,43.43
2022-12-18T17:15:24.430Z,43.18
2022-12-18T17:17:51.008Z,45.27
2022-12-18T17:20:17.531Z,46.10
2022-12-18T17:22:46.381Z,44.60
2022-12-18T17:25:13.130Z,45.62
2022-12-18T17:28:17.315Z,47.58
2022-12-18T17:30:43.923Z,47.54
2022-12-18T17:33:10.616Z,48.32
2022-12-18T17:35:37.216Z,48.98
2022-12-18T17:38:03.990Z,48.92
2022-12-18T17:40:33.334Z,47.98
2022-12-18T17:43:00.003Z,48.12
2022-12-18T17:45:26.560Z,48.68
2022-12-18T17:47:59.629Z,48.59
2022-12-18T17:50:26.505Z,49.57
2022-12-18T17:53:31.147Z,49.22
2022-12-18T17:56:00.986Z,50.74
2022-12-18T17:58:28.814Z,50.76
2022-12-18T18:00:55.466Z,50.20
2022-12-18T18:03:22.097Z,49.41
2022-12-18T18:05:49.227Z,50.78
2022-12-18T18:08:15.760Z,50.65
2022-12-18T18:10:42.627Z,49.90
2022-12-18T18:13:42.069Z,50.11
2022-12-18T18:16:12.997Z,49.44
2022-12-18T18:18:40.000Z,48.79
2022-12-18T18:21:08.275Z,48.09
2022-12-18T18:23:35.622Z,48.07
2022-12-18T18:26:06.946Z,49.93
2022-12-18T18:28:34.342Z,48.52
2022-12-18T18:31:09.189Z,48.73
2022-12-18T18:33:35.815Z,47.93
2022-12-18T18:36:02.317Z,48.24
2022-12-18T18:38:29.193Z,48.24
2022-12-18T18:41:03.871Z,48.75
2022-12-18T18:43:31.129Z,48.90
2022-12-18T18:45:59.282Z,48.01
2022-12-18T18:48:26.754Z,48.72
2022-12-18T18:50:57.717Z,47.60
2022-12-18T18:53:24.293Z,47.56
2022-12-18T18:56:16.584Z,47.78
2022-12-18T18:59:14.799Z,49.42
2022-12-18T19:01:41.462Z,49.21
2022-12-18T19:04:08.315Z,47.86
2022-12-18T19:06:34.841Z,48.89
2022-12-18T19:09:04.810Z,48.51
2022-12-18T19:11:49.946Z,48.75
2022-12-18T19:14:17.074Z,49.76
2022-12-18T19:16:45.457Z,49.11
2022-12-18T19:19:13.072Z,48.26
2022-12-18T19:21:40.235Z,48.35
2022-12-18T19:24:07.067Z,48.68
2022-12-18T19:26:33.546Z,48.21
2022-12-18T19:29:08.145Z,47.74
2022-12-18T19:31:36.677Z,48.95
2022-12-18T19:34:06.775Z,48.59
2022-12-18T19:36:35.288Z,49.67
2022-12-18T19:39:02.314Z,49.13
2022-12-18T19:41:31.305Z,48.73
2022-12-18T19:43:59.781Z,48.36
2022-12-18T19:46:26.439Z,49.51
2022-12-18T19:48:53.643Z,50.29
2022-12-18T19:51:25.991Z,48.68
2022-12-18T19:53:58.126Z,48.04
2022-12-18T19:56:27.179Z,49.21
2022-12-18T19:58:54.600Z,49.15
2022-12-18T20:01:23.449Z,51.03
2022-12-18T20:03:52.392Z,49.27
2022-12-18T20:06:26.093Z,48.99
2022-12-18T20:09:29.889Z,48.11
2022-12-18T20:11:56.367Z,49.12
2022-12-18T20:14:23.893Z,48.69
2022-12-18T20:17:28.555Z,49.80
2022-12-18T20:19:56.213Z,48.84
2022-12-18T20:22:23.885Z,48.80
2022-12-18T20:24:50.664Z,48.02
2022-12-18T20:27:19.585Z,48.13
2022-12-18T20:29:46.228Z,49.48
2022-12-18T20:32:13.147Z,48.49
2022-12-18T20:34:39.685Z,48.06
2022-12-18T20:37:06.230Z,47.89
2022-12-18T20:39:34.056Z,48.06
2022-12-18T20:42:01.315Z,47.00
2022-12-18T20:44:27.764Z,47.65
2022-12-18T20:46:56.896Z,46.29
2022-12-18T20:49:24.701Z,48.09
2022-12-18T20:51:52.849Z,46.74
2022-12-18T20:54:19.837Z,45.79
2022-12-18T20:56:46.609Z,44.83
2022-12-18T20:59:13.094Z,45.14
2022-12-18T21:01:40.840Z,45.32
2022-12-18T21:04:15.281Z,43.92
2022-12-18T21:06:49.415Z,44.93
2022-12-18T21:09:18.170Z,45.46
2022-12-18T21:12:03.312Z,46.69
2022-12-18T21:14:33.324Z,47.11
2022-12-18T21:17:01.837Z,45.74
2022-12-18T21:19:29.103Z,44.69
2022-12-18T21:22:32.797Z,44.17
2022-12-18T21:24:59.296Z,44.38
2022-12-18T21:28:03.164Z,44.09
2022-12-18T21:30:29.637Z,44.65
2022-12-18T21:32:56.211Z,44.99
2022-12-18T21:35:22.702Z,45.22
2022-12-18T21:37:50.998Z,45.66
2022-12-18T21:40:17.490Z,45.80
2022-12-18T21:43:02.875Z,47.09
2022-12-18T21:45:29.416Z,49.33
2022-12-18T21:47:55.863Z,49.44
2022-12-18T21:50:22.352Z,50.07
2022-12-18T21:52:48.813Z,48.89
2022-12-18T21:55:15.474Z,48.43
2022-12-18T21:57:42.031Z,49.68
2022-12-18T22:00:18.871Z,50.56
2022-12-18T22:02:46.247Z,52.06
2022-12-18T22:05:12.948Z,53.05
2022-12-18T22:07:39.815Z,52.66
2022-12-18T22:10:06.854Z,55.44
2022-12-18T22:12:43.574Z,55.46
2022-12-18T22:15:12.040Z,54.57
2022-12-18T22:17:41.272Z,54.75
2022-12-18T22:20:09.389Z,57.92
2022-12-18T22:22:36.064Z,57.92
2022-12-18T22:25:02.703Z,56.98
2022-12-18T22:27:29.180Z,56.11
2022-12-18T22:30:04.755Z,55.67
2022-12-18T22:32:32.987Z,55.65
2022-12-18T22:35:05.790Z,56.13
2022-12-18T22:37:34.718Z,56.03
2022-12-18T22:40:03.452Z,55.17
2022-12-18T22:42:31.016Z,56.12
2022-12-18T22:44:57.479Z,55.21
2022-12-18T22:47:28.001Z,55.80
2022-12-18T22:49:56.145Z,55.91
2022-12-18T22:52:23.395Z,56.39
2022-12-18T22:54:51.536Z,56.80
2022-12-18T22:57:21.690Z,57.97
2022-12-18T22:59:49.125Z,58.11
2022-12-18T23:02:15.716Z,58.31
2022-12-18T23:04:42.292Z,58.22
2022-12-18T23:07:09.013Z,59.44
2022-12-18T23:09:37.761Z,59.52
2022-12-18T23:12:04.850Z,60.50
2022-12-18T23:14:31.794Z,60.73
2022-12-18T23:16:58.505Z,61.37
2022-12-18T23:19:26.141Z,61.16
2022-12-18T23:21:52.605Z,62.26
2022-12-18T23:24:21.286Z,61.78
2022-12-18T23:26:47.818Z,61.97
2022-12-18T23:29:14.505Z,62.57
2022-12-18T23:31:41.102Z,63.29
2022-12-18T23:34:08.101Z,63.42
2022-12-18T23:36:45.960Z,64.04
2022-12-18T23:39:28.706Z,65.68
2022-12-18T23:41:58.285Z,64.17
2022-12-18T23:44:25.437Z,65.56
2022-12-18T23:46:51.973Z,66.94
2022-12-18T23:49:18.548Z,66.34
2022-12-18T23:51:45.039Z,65.78
2022-12-18T23:54:11.480Z,66.16
2022-12-18T23:56:37.949Z,66.52
2022-12-18T23:59:04.621Z,65.95
